Sam Norwood, Texas
Current Conditions -  °F | °C
As of 11:53 AM on Friday 21 Nov 2014 (Local Time) from KCDS Reporting Station
Haze Haze  
Wind Chill: 41°   Ceiling: 300
Heat Index: 41°   Visibility: 2.5mi
Dew Point: 39°   Wind: 0mph
Humidity: 93%   Direction: NA
Pressure: 30.08"   Gusts: NA
Location:  35.0524°N, 100.276°W
Report Text: KCDS 211753Z AUTO 00000KT 2 1/2SM BR OVC003 05/04 A3008 RMK AO2 SLP188 T00500039 10050 20006 50001
Loading
Personal Weather Stations






























Interactive Weather Map New forecast layout! Learn more

10-Day Weather Forecast

Advertisements
Track Severe Weather on mobile